sensor_id;sensor_type;location;lat;lon;timestamp;pressure;altitude;pressure_sealevel;temperature;humidity
29045;BME280;16133;49.486;12.176;2023-06-05T00:00:30;97578.75;;;11.56;64.88
29045;BME280;16133;49.486;12.176;2023-06-05T00:02:55;97585.91;;;11.55;64.51
29045;BME280;16133;49.486;12.176;2023-06-05T00:05:24;97590.38;;;11.55;64.23
29045;BME280;16133;49.486;12.176;2023-06-05T00:07:51;97585.91;;;11.55;65.98
29045;BME280;16133;49.486;12.176;2023-06-05T00:10:16;97583.06;;;11.57;65.12
29045;BME280;16133;49.486;12.176;2023-06-05T00:12:42;97580.59;;;11.55;66.08
29045;BME280;16133;49.486;12.176;2023-06-05T00:15:08;97588.56;;;11.55;66.92
29045;BME280;16133;49.486;12.176;2023-06-05T00:17:33;97569.84;;;11.48;67.66
29045;BME280;16133;49.486;12.176;2023-06-05T00:19:59;97569.66;;;11.50;67.20
29045;BME280;16133;49.486;12.176;2023-06-05T00:22:27;97569.56;;;11.58;65.11
29045;BME280;16133;49.486;12.176;2023-06-05T00:24:53;97578.22;;;11.60;65.32
29045;BME280;16133;49.486;12.176;2023-06-05T00:27:19;97585.53;;;11.58;66.66
29045;BME280;16133;49.486;12.176;2023-06-05T00:29:45;97579.38;;;11.58;66.72
29045;BME280;16133;49.486;12.176;2023-06-05T00:32:10;97576.84;;;11.64;62.08
29045;BME280;16133;49.486;12.176;2023-06-05T00:34:35;97570.44;;;11.73;60.53
29045;BME280;16133;49.486;12.176;2023-06-05T00:37:01;97568.28;;;11.91;58.09
29045;BME280;16133;49.486;12.176;2023-06-05T00:39:27;97571.84;;;11.98;57.46
29045;BME280;16133;49.486;12.176;2023-06-05T00:41:52;97572.09;;;12.04;58.05
29045;BME280;16133;49.486;12.176;2023-06-05T00:44:18;97569.81;;;12.01;60.34
29045;BME280;16133;49.486;12.176;2023-06-05T00:46:43;97568.06;;;11.93;61.43
29045;BME280;16133;49.486;12.176;2023-06-05T00:49:09;97571.28;;;11.88;62.94
29045;BME280;16133;49.486;12.176;2023-06-05T00:51:35;97580.81;;;11.83;64.06
29045;BME280;16133;49.486;12.176;2023-06-05T00:54:01;97573.03;;;11.81;60.94
29045;BME280;16133;49.486;12.176;2023-06-05T00:56:26;97579.53;;;11.79;61.60
29045;BME280;16133;49.486;12.176;2023-06-05T00:58:53;97578.41;;;11.73;63.87
29045;BME280;16133;49.486;12.176;2023-06-05T01:01:18;97575.66;;;11.67;64.11
29045;BME280;16133;49.486;12.176;2023-06-05T01:03:46;97575.81;;;11.65;62.45
29045;BME280;16133;49.486;12.176;2023-06-05T01:06:13;97578.69;;;11.64;62.45
29045;BME280;16133;49.486;12.176;2023-06-05T01:08:38;97571.78;;;11.69;61.03
29045;BME280;16133;49.486;12.176;2023-06-05T01:13:44;97567.44;;;11.76;59.92
29045;BME280;16133;49.486;12.176;2023-06-05T01:16:11;97565.03;;;11.81;59.97
29045;BME280;16133;49.486;12.176;2023-06-05T01:18:37;97574.22;;;11.79;60.58
29045;BME280;16133;49.486;12.176;2023-06-05T01:21:11;97577.25;;;11.76;60.92
29045;BME280;16133;49.486;12.176;2023-06-05T01:23:43;97576.41;;;11.75;60.61
29045;BME280;16133;49.486;12.176;2023-06-05T01:26:17;97577.06;;;11.77;61.35
29045;BME280;16133;49.486;12.176;2023-06-05T01:28:45;97572.19;;;11.81;60.50
29045;BME280;16133;49.486;12.176;2023-06-05T01:31:14;97572.75;;;11.76;61.91
29045;BME280;16133;49.486;12.176;2023-06-05T01:33:59;97574.19;;;11.64;62.67
29045;BME280;16133;49.486;12.176;2023-06-05T01:36:28;97575.25;;;11.55;63.19
29045;BME280;16133;49.486;12.176;2023-06-05T01:38:54;97573.88;;;11.44;64.26
29045;BME280;16133;49.486;12.176;2023-06-05T01:41:22;97578.97;;;11.31;65.72
29045;BME280;16133;49.486;12.176;2023-06-05T01:43:49;97565.75;;;11.23;65.42
29045;BME280;16133;49.486;12.176;2023-06-05T01:46:20;97579.94;;;11.16;65.21
29045;BME280;16133;49.486;12.176;2023-06-05T01:48:46;97581.03;;;11.07;65.38
29045;BME280;16133;49.486;12.176;2023-06-05T01:51:12;97568.75;;;11.06;65.08
29045;BME280;16133;49.486;12.176;2023-06-05T01:53:38;97574.72;;;11.08;64.25
29045;BME280;16133;49.486;12.176;2023-06-05T01:56:04;97570.28;;;11.00;66.25
29045;BME280;16133;49.486;12.176;2023-06-05T01:58:29;97572.19;;;10.91;66.72
29045;BME280;16133;49.486;12.176;2023-06-05T02:00:55;97563.19;;;10.92;67.02
29045;BME280;16133;49.486;12.176;2023-06-05T02:03:23;97558.72;;;10.93;65.96
29045;BME280;16133;49.486;12.176;2023-06-05T02:05:49;97560.28;;;10.87;66.04
29045;BME280;16133;49.486;12.176;2023-06-05T02:08:16;97557.31;;;10.82;66.67
29045;BME280;16133;49.486;12.176;2023-06-05T02:10:45;97560.28;;;10.87;66.18
29045;BME280;16133;49.486;12.176;2023-06-05T02:13:12;97559.13;;;10.82;66.61
29045;BME280;16133;49.486;12.176;2023-06-05T02:15:37;97547.53;;;10.83;67.05
29045;BME280;16133;49.486;12.176;2023-06-05T02:18:03;97546.91;;;10.81;66.79
29045;BME280;16133;49.486;12.176;2023-06-05T02:20:30;97540.44;;;10.75;67.60
29045;BME280;16133;49.486;12.176;2023-06-05T02:22:56;97550.50;;;10.65;66.78
29045;BME280;16133;49.486;12.176;2023-06-05T02:25:22;97545.56;;;10.54;69.37
29045;BME280;16133;49.486;12.176;2023-06-05T02:27:51;97541.84;;;10.40;70.00
29045;BME280;16133;49.486;12.176;2023-06-05T02:30:17;97542.09;;;10.31;71.14
29045;BME280;16133;49.486;12.176;2023-06-05T02:32:42;97535.00;;;10.23;71.00
29045;BME280;16133;49.486;12.176;2023-06-05T02:35:10;97525.56;;;10.13;71.96
29045;BME280;16133;49.486;12.176;2023-06-05T02:37:36;97533.03;;;10.09;71.90
29045;BME280;16133;49.486;12.176;2023-06-05T02:40:07;97533.91;;;10.01;73.33
29045;BME280;16133;49.486;12.176;2023-06-05T02:42:34;97528.16;;;9.90;74.25
29045;BME280;16133;49.486;12.176;2023-06-05T02:45:04;97527.22;;;9.75;75.83
29045;BME280;16133;49.486;12.176;2023-06-05T02:47:31;97530.41;;;9.62;76.39
29045;BME280;16133;49.486;12.176;2023-06-05T02:49:57;97523.66;;;9.51;77.10
29045;BME280;16133;49.486;12.176;2023-06-05T02:52:22;97526.31;;;9.43;79.17
29045;BME280;16133;49.486;12.176;2023-06-05T02:54:47;97528.50;;;9.32;79.50
29045;BME280;16133;49.486;12.176;2023-06-05T02:57:13;97538.13;;;9.25;80.93
29045;BME280;16133;49.486;12.176;2023-06-05T02:59:41;97530.19;;;9.17;81.19
29045;BME280;16133;49.486;12.176;2023-06-05T03:02:06;97536.16;;;9.10;82.24
29045;BME280;16133;49.486;12.176;2023-06-05T03:04:32;97536.00;;;9.04;82.63
29045;BME280;16133;49.486;12.176;2023-06-05T03:06:58;97537.16;;;9.01;83.53
29045;BME280;16133;49.486;12.176;2023-06-05T03:09:28;97530.53;;;8.97;83.46
29045;BME280;16133;49.486;12.176;2023-06-05T03:11:53;97536.66;;;8.98;83.06
29045;BME280;16133;49.486;12.176;2023-06-05T03:14:19;97539.28;;;9.06;81.88
29045;BME280;16133;49.486;12.176;2023-06-05T03:16:44;97538.31;;;9.15;81.10
29045;BME280;16133;49.486;12.176;2023-06-05T03:19:11;97539.13;;;9.24;80.61
29045;BME280;16133;49.486;12.176;2023-06-05T03:21:37;97532.47;;;9.28;80.17
29045;BME280;16133;49.486;12.176;2023-06-05T03:24:11;97534.81;;;9.31;81.14
29045;BME280;16133;49.486;12.176;2023-06-05T03:26:41;97537.63;;;9.29;82.23
29045;BME280;16133;49.486;12.176;2023-06-05T03:29:07;97540.09;;;9.31;82.92
29045;BME280;16133;49.486;12.176;2023-06-05T03:31:33;97535.44;;;9.33;83.85
29045;BME280;16133;49.486;12.176;2023-06-05T03:33:58;97542.06;;;9.37;83.58
29045;BME280;16133;49.486;12.176;2023-06-05T03:36:25;97539.06;;;9.48;83.49
29045;BME280;16133;49.486;12.176;2023-06-05T03:38:50;97535.06;;;9.60;83.59
29045;BME280;16133;49.486;12.176;2023-06-05T03:41:16;97546.94;;;9.72;83.02
29045;BME280;16133;49.486;12.176;2023-06-05T03:43:42;97545.88;;;9.89;79.68
29045;BME280;16133;49.486;12.176;2023-06-05T03:46:07;97544.81;;;10.06;77.72
29045;BME280;16133;49.486;12.176;2023-06-05T03:48:33;97549.25;;;10.22;76.15
29045;BME280;16133;49.486;12.176;2023-06-05T03:50:58;97542.41;;;10.28;76.35
29045;BME280;16133;49.486;12.176;2023-06-05T03:53:26;97547.97;;;10.41;75.25
29045;BME280;16133;49.486;12.176;2023-06-05T03:55:54;97549.00;;;10.63;74.97
29045;BME280;16133;49.486;12.176;2023-06-05T03:58:20;97554.34;;;10.77;75.73
29045;BME280;16133;49.486;12.176;2023-06-05T04:00:47;97546.94;;;10.95;74.08
29045;BME280;16133;49.486;12.176;2023-06-05T04:03:16;97546.44;;;11.15;73.39
29045;BME280;16133;49.486;12.176;2023-06-05T04:05:41;97542.06;;;11.36;71.53
29045;BME280;16133;49.486;12.176;2023-06-05T04:08:08;97546.03;;;11.55;71.93
29045;BME280;16133;49.486;12.176;2023-06-05T04:10:37;97550.66;;;11.76;71.68
29045;BME280;16133;49.486;12.176;2023-06-05T04:13:03;97555.88;;;11.98;72.42
29045;BME280;16133;49.486;12.176;2023-06-05T04:15:29;97545.94;;;12.22;71.67
29045;BME280;16133;49.486;12.176;2023-06-05T04:17:54;97544.97;;;12.44;70.46
29045;BME280;16133;49.486;12.176;2023-06-05T04:20:20;97547.28;;;12.68;69.62
29045;BME280;16133;49.486;12.176;2023-06-05T04:22:46;97547.09;;;12.91;67.22
29045;BME280;16133;49.486;12.176;2023-06-05T04:25:11;97544.44;;;13.12;67.19
29045;BME280;16133;49.486;12.176;2023-06-05T04:27:41;97541.97;;;13.38;66.87
29045;BME280;16133;49.486;12.176;2023-06-05T04:30:08;97538.47;;;13.66;63.51
29045;BME280;16133;49.486;12.176;2023-06-05T04:32:35;97538.41;;;13.87;61.20
29045;BME280;16133;49.486;12.176;2023-06-05T04:35:05;97539.72;;;14.04;60.06
29045;BME280;16133;49.486;12.176;2023-06-05T04:37:34;97541.41;;;14.18;59.94
29045;BME280;16133;49.486;12.176;2023-06-05T04:40:04;97538.63;;;14.33;59.65
29045;BME280;16133;49.486;12.176;2023-06-05T04:42:35;97545.09;;;14.52;59.02
29045;BME280;16133;49.486;12.176;2023-06-05T04:45:03;97543.53;;;14.97;57.04
29045;BME280;16133;49.486;12.176;2023-06-05T04:47:30;97540.03;;;15.68;55.78
29045;BME280;16133;49.486;12.176;2023-06-05T04:50:00;97543.63;;;17.02;52.44
29045;BME280;16133;49.486;12.176;2023-06-05T04:52:29;97549.56;;;18.58;48.45
29045;BME280;16133;49.486;12.176;2023-06-05T04:54:55;97552.56;;;19.86;45.05
29045;BME280;16133;49.486;12.176;2023-06-05T04:57:20;97550.28;;;20.81;42.77
29045;BME280;16133;49.486;12.176;2023-06-05T04:59:45;97548.56;;;20.63;42.00
29045;BME280;16133;49.486;12.176;2023-06-05T05:02:11;97555.50;;;19.84;43.01
29045;BME280;16133;49.486;12.176;2023-06-05T05:04:37;97553.94;;;19.00;44.29
29045;BME280;16133;49.486;12.176;2023-06-05T05:07:03;97553.44;;;18.26;46.04
29045;BME280;16133;49.486;12.176;2023-06-05T05:09:29;97553.63;;;17.70;47.14
29045;BME280;16133;49.486;12.176;2023-06-05T05:11:55;97552.06;;;17.31;48.79
29045;BME280;16133;49.486;12.176;2023-06-05T05:14:20;97538.63;;;17.06;48.92
29045;BME280;16133;49.486;12.176;2023-06-05T05:16:46;97556.44;;;17.25;49.05
29045;BME280;16133;49.486;12.176;2023-06-05T05:19:11;97552.72;;;17.57;47.97
29045;BME280;16133;49.486;12.176;2023-06-05T05:21:36;97554.94;;;18.22;47.93
29045;BME280;16133;49.486;12.176;2023-06-05T05:24:03;97550.47;;;19.12;45.36
29045;BME280;16133;49.486;12.176;2023-06-05T05:26:28;97544.22;;;20.34;43.42
29045;BME280;16133;49.486;12.176;2023-06-05T05:28:54;97542.94;;;21.21;41.37
29045;BME280;16133;49.486;12.176;2023-06-05T05:31:19;97547.91;;;22.13;39.90
29045;BME280;16133;49.486;12.176;2023-06-05T05:33:44;97551.81;;;22.65;38.05
29045;BME280;16133;49.486;12.176;2023-06-05T05:36:10;97550.25;;;22.91;38.10
29045;BME280;16133;49.486;12.176;2023-06-05T05:38:35;97558.38;;;22.69;38.68
29045;BME280;16133;49.486;12.176;2023-06-05T05:41:01;97550.50;;;22.90;38.10
29045;BME280;16133;49.486;12.176;2023-06-05T05:43:26;97549.75;;;22.94;37.69
29045;BME280;16133;49.486;12.176;2023-06-05T05:45:51;97549.69;;;22.67;38.13
29045;BME280;16133;49.486;12.176;2023-06-05T05:48:17;97545.84;;;22.85;38.40
29045;BME280;16133;49.486;12.176;2023-06-05T05:50:42;97556.56;;;23.55;37.70
29045;BME280;16133;49.486;12.176;2023-06-05T05:53:08;97552.47;;;24.26;36.57
29045;BME280;16133;49.486;12.176;2023-06-05T05:55:33;97558.34;;;24.60;35.86
29045;BME280;16133;49.486;12.176;2023-06-05T05:57:59;97550.63;;;25.09;35.27
29045;BME280;16133;49.486;12.176;2023-06-05T06:00:24;97547.44;;;25.53;33.93
29045;BME280;16133;49.486;12.176;2023-06-05T06:02:50;97561.56;;;25.80;34.36
29045;BME280;16133;49.486;12.176;2023-06-05T06:05:17;97543.34;;;25.81;33.53
29045;BME280;16133;49.486;12.176;2023-06-05T06:07:43;97554.47;;;25.29;34.12
29045;BME280;16133;49.486;12.176;2023-06-05T06:10:09;97555.16;;;24.26;35.68
29045;BME280;16133;49.486;12.176;2023-06-05T06:12:36;97550.28;;;24.18;36.64
29045;BME280;16133;49.486;12.176;2023-06-05T06:15:02;97547.88;;;24.94;35.81
29045;BME280;16133;49.486;12.176;2023-06-05T06:17:29;97541.97;;;25.38;33.98
29045;BME280;16133;49.486;12.176;2023-06-05T06:19:54;97542.53;;;25.80;34.06
29045;BME280;16133;49.486;12.176;2023-06-05T06:22:20;97545.44;;;26.34;33.72
29045;BME280;16133;49.486;12.176;2023-06-05T06:24:46;97539.16;;;26.44;33.21
29045;BME280;16133;49.486;12.176;2023-06-05T06:27:11;97537.00;;;26.36;33.46
29045;BME280;16133;49.486;12.176;2023-06-05T06:29:47;97539.25;;;25.98;33.58
29045;BME280;16133;49.486;12.176;2023-06-05T06:32:14;97535.16;;;25.10;34.97
29045;BME280;16133;49.486;12.176;2023-06-05T06:34:40;97528.44;;;24.45;36.67
29045;BME280;16133;49.486;12.176;2023-06-05T06:37:06;97529.25;;;23.99;37.53
29045;BME280;16133;49.486;12.176;2023-06-05T06:39:31;97539.06;;;23.68;37.97
29045;BME280;16133;49.486;12.176;2023-06-05T06:41:57;97534.66;;;23.62;38.42
29045;BME280;16133;49.486;12.176;2023-06-05T06:44:22;97540.19;;;23.72;39.14
29045;BME280;16133;49.486;12.176;2023-06-05T06:46:48;97533.19;;;23.81;39.30
29045;BME280;16133;49.486;12.176;2023-06-05T06:49:13;97531.88;;;23.84;39.75
29045;BME280;16133;49.486;12.176;2023-06-05T06:51:39;97538.06;;;23.79;39.28
29045;BME280;16133;49.486;12.176;2023-06-05T06:54:04;97531.34;;;23.87;40.46
29045;BME280;16133;49.486;12.176;2023-06-05T06:56:30;97534.81;;;23.82;41.23
29045;BME280;16133;49.486;12.176;2023-06-05T06:58:55;97537.38;;;23.62;41.11
29045;BME280;16133;49.486;12.176;2023-06-05T07:01:21;97545.66;;;23.45;42.18
29045;BME280;16133;49.486;12.176;2023-06-05T07:03:46;97537.22;;;23.42;42.83
29045;BME280;16133;49.486;12.176;2023-06-05T07:06:12;97538.16;;;23.57;42.33
29045;BME280;16133;49.486;12.176;2023-06-05T07:08:38;97545.81;;;23.39;43.15
29045;BME280;16133;49.486;12.176;2023-06-05T07:11:03;97542.56;;;23.37;43.26
29045;BME280;16133;49.486;12.176;2023-06-05T07:13:29;97541.84;;;23.46;43.89
29045;BME280;16133;49.486;12.176;2023-06-05T07:15:54;97538.69;;;23.91;43.92
29045;BME280;16133;49.486;12.176;2023-06-05T07:18:20;97530.53;;;24.33;43.26
29045;BME280;16133;49.486;12.176;2023-06-05T07:20:46;97534.19;;;24.64;42.83
29045;BME280;16133;49.486;12.176;2023-06-05T07:23:12;97528.91;;;25.09;42.17
29045;BME280;16133;49.486;12.176;2023-06-05T07:25:38;97520.78;;;25.40;41.39
29045;BME280;16133;49.486;12.176;2023-06-05T07:28:09;97533.56;;;25.85;40.69
29045;BME280;16133;49.486;12.176;2023-06-05T07:30:38;97535.94;;;26.27;39.26
29045;BME280;16133;49.486;12.176;2023-06-05T07:33:04;97547.34;;;26.39;38.89
29045;BME280;16133;49.486;12.176;2023-06-05T07:35:29;97535.41;;;26.14;39.14
29045;BME280;16133;49.486;12.176;2023-06-05T07:37:55;97542.50;;;26.05;39.20
29045;BME280;16133;49.486;12.176;2023-06-05T07:40:20;97542.22;;;26.17;39.81
29045;BME280;16133;49.486;12.176;2023-06-05T07:42:46;97539.75;;;26.10;39.34
29045;BME280;16133;49.486;12.176;2023-06-05T07:45:11;97543.38;;;25.76;39.54
29045;BME280;16133;49.486;12.176;2023-06-05T07:47:37;97540.59;;;25.30;40.10
29045;BME280;16133;49.486;12.176;2023-06-05T07:50:03;97542.84;;;24.61;41.22
29045;BME280;16133;49.486;12.176;2023-06-05T07:52:30;97540.09;;;23.99;43.19
29045;BME280;16133;49.486;12.176;2023-06-05T07:54:56;97545.19;;;23.53;44.03
29045;BME280;16133;49.486;12.176;2023-06-05T07:57:22;97534.31;;;23.21;44.82
29045;BME280;16133;49.486;12.176;2023-06-05T07:59:52;97536.88;;;23.06;46.12
29045;BME280;16133;49.486;12.176;2023-06-05T08:02:19;97544.06;;;22.69;47.32
29045;BME280;16133;49.486;12.176;2023-06-05T08:04:45;97539.19;;;22.49;48.15
29045;BME280;16133;49.486;12.176;2023-06-05T08:07:11;97540.50;;;22.47;47.82
29045;BME280;16133;49.486;12.176;2023-06-05T08:09:36;97536.25;;;22.72;48.33
29045;BME280;16133;49.486;12.176;2023-06-05T08:12:06;97535.44;;;22.72;47.22
29045;BME280;16133;49.486;12.176;2023-06-05T08:14:33;97534.41;;;22.78;48.02
29045;BME280;16133;49.486;12.176;2023-06-05T08:16:58;97524.34;;;22.52;48.21
29045;BME280;16133;49.486;12.176;2023-06-05T08:19:24;97529.75;;;22.52;48.54
29045;BME280;16133;49.486;12.176;2023-06-05T08:21:53;97529.81;;;22.78;49.32
29045;BME280;16133;49.486;12.176;2023-06-05T08:24:25;97521.63;;;23.00;48.67
29045;BME280;16133;49.486;12.176;2023-06-05T08:26:52;97518.38;;;23.25;48.58
29045;BME280;16133;49.486;12.176;2023-06-05T08:29:17;97511.50;;;23.76;47.66
29045;BME280;16133;49.486;12.176;2023-06-05T08:31:43;97505.28;;;24.27;46.45
29045;BME280;16133;49.486;12.176;2023-06-05T08:34:08;97508.41;;;24.56;46.53
29045;BME280;16133;49.486;12.176;2023-06-05T08:36:33;97508.78;;;25.00;45.75
29045;BME280;16133;49.486;12.176;2023-06-05T08:39:00;97504.22;;;25.46;45.83
29045;BME280;16133;49.486;12.176;2023-06-05T08:41:26;97507.72;;;25.97;43.91
29045;BME280;16133;49.486;12.176;2023-06-05T08:43:52;97513.91;;;26.28;42.49
29045;BME280;16133;49.486;12.176;2023-06-05T08:46:17;97507.22;;;26.64;42.00
29045;BME280;16133;49.486;12.176;2023-06-05T08:48:43;97509.72;;;26.56;41.39
29045;BME280;16133;49.486;12.176;2023-06-05T08:51:11;97512.97;;;26.58;42.33
29045;BME280;16133;49.486;12.176;2023-06-05T08:53:38;97511.00;;;26.69;41.25
29045;BME280;16133;49.486;12.176;2023-06-05T08:56:06;97512.97;;;26.58;40.82
29045;BME280;16133;49.486;12.176;2023-06-05T08:58:31;97516.91;;;26.16;41.91
29045;BME280;16133;49.486;12.176;2023-06-05T09:00:58;97508.59;;;25.67;42.96
29045;BME280;16133;49.486;12.176;2023-06-05T09:03:23;97510.47;;;25.47;43.56
29045;BME280;16133;49.486;12.176;2023-06-05T09:05:49;97508.28;;;25.44;43.22
29045;BME280;16133;49.486;12.176;2023-06-05T09:08:16;97503.66;;;25.24;43.70
29045;BME280;16133;49.486;12.176;2023-06-05T09:10:42;97497.69;;;25.27;44.02
29045;BME280;16133;49.486;12.176;2023-06-05T09:13:07;97504.75;;;25.23;43.46
29045;BME280;16133;49.486;12.176;2023-06-05T09:15:34;97510.16;;;25.08;43.77
29045;BME280;16133;49.486;12.176;2023-06-05T09:20:33;97515.53;;;24.88;44.06
29045;BME280;16133;49.486;12.176;2023-06-05T09:23:00;97509.25;;;24.77;45.62
29045;BME280;16133;49.486;12.176;2023-06-05T09:25:26;97501.66;;;24.74;45.77
29045;BME280;16133;49.486;12.176;2023-06-05T09:28:07;97508.16;;;24.73;45.20
29045;BME280;16133;49.486;12.176;2023-06-05T09:30:32;97513.00;;;24.61;45.60
29045;BME280;16133;49.486;12.176;2023-06-05T09:33:08;97515.19;;;24.59;45.29
29045;BME280;16133;49.486;12.176;2023-06-05T09:35:34;97506.72;;;24.45;45.30
29045;BME280;16133;49.486;12.176;2023-06-05T09:38:06;97507.03;;;24.59;45.90
29045;BME280;16133;49.486;12.176;2023-06-05T09:40:49;97502.16;;;24.61;46.00
29045;BME280;16133;49.486;12.176;2023-06-05T09:43:21;97504.84;;;24.61;45.61
29045;BME280;16133;49.486;12.176;2023-06-05T09:45:49;97513.59;;;24.68;46.38
29045;BME280;16133;49.486;12.176;2023-06-05T09:48:15;97473.44;;;24.75;45.05
29045;BME280;16133;49.486;12.176;2023-06-05T09:50:41;97502.00;;;24.93;45.70
29045;BME280;16133;49.486;12.176;2023-06-05T09:53:09;97515.03;;;25.01;44.96
29045;BME280;16133;49.486;12.176;2023-06-05T09:55:35;97505.56;;;25.08;44.79
29045;BME280;16133;49.486;12.176;2023-06-05T09:58:04;97507.75;;;25.32;44.78
29045;BME280;16133;49.486;12.176;2023-06-05T10:00:36;97502.56;;;25.50;43.89
29045;BME280;16133;49.486;12.176;2023-06-05T10:03:07;97497.44;;;25.74;43.78
29045;BME280;16133;49.486;12.176;2023-06-05T10:05:37;97505.00;;;25.92;43.68
29045;BME280;16133;49.486;12.176;2023-06-05T10:08:03;97505.28;;;25.91;43.08
29045;BME280;16133;49.486;12.176;2023-06-05T10:10:29;97499.84;;;25.86;43.00
29045;BME280;16133;49.486;12.176;2023-06-05T10:12:56;97500.44;;;25.67;43.46
29045;BME280;16133;49.486;12.176;2023-06-05T10:15:26;97502.06;;;25.58;44.06
29045;BME280;16133;49.486;12.176;2023-06-05T10:17:52;97487.91;;;25.61;44.01
29045;BME280;16133;49.486;12.176;2023-06-05T10:20:21;97500.44;;;25.62;43.99
29045;BME280;16133;49.486;12.176;2023-06-05T10:22:48;97495.75;;;25.88;43.41
29045;BME280;16133;49.486;12.176;2023-06-05T10:25:15;97499.03;;;25.90;43.64
29045;BME280;16133;49.486;12.176;2023-06-05T10:38:31;97496.13;;;26.51;41.68
29045;BME280;16133;49.486;12.176;2023-06-05T10:41:00;97502.16;;;26.38;42.23
29045;BME280;16133;49.486;12.176;2023-06-05T10:43:31;97497.03;;;26.31;42.40
29045;BME280;16133;49.486;12.176;2023-06-05T10:46:02;97494.00;;;26.43;42.47
29045;BME280;16133;49.486;12.176;2023-06-05T10:51:35;97491.84;;;26.35;41.71
29045;BME280;16133;49.486;12.176;2023-06-05T10:54:09;97490.88;;;26.64;41.99
29045;BME280;16133;49.486;12.176;2023-06-05T10:56:54;97491.78;;;27.04;41.39
29045;BME280;16133;49.486;12.176;2023-06-05T11:07:28;97483.28;;;27.10;40.91
29045;BME280;16133;49.486;12.176;2023-06-05T11:10:06;97488.88;;;26.90;41.82
29045;BME280;16133;49.486;12.176;2023-06-05T11:15:07;97503.03;;;26.28;41.31
29045;BME280;16133;49.486;12.176;2023-06-05T11:20:48;97496.44;;;26.44;42.20
29045;BME280;16133;49.486;12.176;2023-06-05T11:30:22;97486.00;;;25.47;42.92
29045;BME280;16133;49.486;12.176;2023-06-05T11:32:49;97482.47;;;25.31;43.17
29045;BME280;16133;49.486;12.176;2023-06-05T11:35:25;97477.03;;;25.46;43.97
29045;BME280;16133;49.486;12.176;2023-06-05T11:38:15;97482.75;;;25.45;43.79
29045;BME280;16133;49.486;12.176;2023-06-05T11:40:41;97473.50;;;25.36;44.59
29045;BME280;16133;49.486;12.176;2023-06-05T11:43:09;97476.00;;;25.52;44.41
29045;BME280;16133;49.486;12.176;2023-06-05T11:45:39;97469.97;;;25.71;43.94
29045;BME280;16133;49.486;12.176;2023-06-05T11:50:34;97467.69;;;26.23;43.57
29045;BME280;16133;49.486;12.176;2023-06-05T11:53:08;97468.78;;;26.17;43.81
29045;BME280;16133;49.486;12.176;2023-06-05T11:55:33;97471.03;;;25.95;43.00
29045;BME280;16133;49.486;12.176;2023-06-05T11:58:12;97471.31;;;25.73;43.38
29045;BME280;16133;49.486;12.176;2023-06-05T12:00:46;97463.75;;;25.40;44.40
29045;BME280;16133;49.486;12.176;2023-06-05T12:03:19;97463.94;;;25.84;43.69
29045;BME280;16133;49.486;12.176;2023-06-05T12:05:48;97464.41;;;26.26;43.40
29045;BME280;16133;49.486;12.176;2023-06-05T12:08:23;97458.28;;;26.54;43.13
29045;BME280;16133;49.486;12.176;2023-06-05T12:11:02;97462.19;;;26.87;42.16
29045;BME280;16133;49.486;12.176;2023-06-05T12:16:17;97447.31;;;26.64;42.21
29045;BME280;16133;49.486;12.176;2023-06-05T12:18:44;97460.84;;;26.85;42.16
29045;BME280;16133;49.486;12.176;2023-06-05T12:21:23;97470.56;;;26.52;41.88
29045;BME280;16133;49.486;12.176;2023-06-05T12:23:49;97472.03;;;26.19;42.06
29045;BME280;16133;49.486;12.176;2023-06-05T12:26:15;97462.06;;;25.89;42.64
29045;BME280;16133;49.486;12.176;2023-06-05T12:28:42;97464.50;;;25.91;42.59
29045;BME280;16133;49.486;12.176;2023-06-05T12:31:08;97472.63;;;25.96;43.03
29045;BME280;16133;49.486;12.176;2023-06-05T12:33:45;97473.50;;;25.81;43.12
29045;BME280;16133;49.486;12.176;2023-06-05T12:36:11;97462.63;;;25.81;43.07
29045;BME280;16133;49.486;12.176;2023-06-05T12:38:38;97462.00;;;26.04;43.45
29045;BME280;16133;49.486;12.176;2023-06-05T12:41:05;97454.81;;;26.39;42.25
29045;BME280;16133;49.486;12.176;2023-06-05T12:43:34;97462.84;;;26.64;41.31
29045;BME280;16133;49.486;12.176;2023-06-05T12:46:00;97462.66;;;26.45;42.20
29045;BME280;16133;49.486;12.176;2023-06-05T12:48:26;97465.13;;;26.47;41.40
29045;BME280;16133;49.486;12.176;2023-06-05T12:50:51;97457.03;;;26.37;41.43
29045;BME280;16133;49.486;12.176;2023-06-05T12:53:17;97449.72;;;26.27;41.56
29045;BME280;16133;49.486;12.176;2023-06-05T12:55:46;97460.06;;;26.25;42.04
29045;BME280;16133;49.486;12.176;2023-06-05T12:58:11;97450.50;;;26.33;41.86
29045;BME280;16133;49.486;12.176;2023-06-05T13:00:37;97453.19;;;26.38;41.99
29045;BME280;16133;49.486;12.176;2023-06-05T13:03:03;97458.09;;;26.41;41.97
29045;BME280;16133;49.486;12.176;2023-06-05T13:05:29;97447.97;;;26.46;42.03
29045;BME280;16133;49.486;12.176;2023-06-05T13:07:57;97439.72;;;26.61;41.85
29045;BME280;16133;49.486;12.176;2023-06-05T13:10:22;97433.91;;;26.83;41.90
29045;BME280;16133;49.486;12.176;2023-06-05T13:12:48;97440.22;;;27.13;41.54
29045;BME280;16133;49.486;12.176;2023-06-05T13:15:13;97437.13;;;26.90;40.52
29045;BME280;16133;49.486;12.176;2023-06-05T13:17:38;97442.19;;;26.58;41.11
29045;BME280;16133;49.486;12.176;2023-06-05T13:20:05;97432.31;;;26.23;41.76
29045;BME280;16133;49.486;12.176;2023-06-05T13:22:34;97428.03;;;26.02;41.48
29045;BME280;16133;49.486;12.176;2023-06-05T13:25:00;97430.75;;;25.97;41.87
29045;BME280;16133;49.486;12.176;2023-06-05T13:27:26;97427.06;;;25.67;42.65
29045;BME280;16133;49.486;12.176;2023-06-05T13:29:51;97428.13;;;25.61;43.59
29045;BME280;16133;49.486;12.176;2023-06-05T13:32:17;97417.00;;;25.38;43.57
29045;BME280;16133;49.486;12.176;2023-06-05T13:34:42;97418.09;;;25.11;44.13